createdAt,value
2023-03-18T00:02:40.570Z,0.70
2023-03-18T00:05:42.538Z,0.50
2023-03-18T00:08:46.413Z,0.90
2023-03-18T00:11:48.394Z,0.90
2023-03-18T00:14:50.790Z,0.50
2023-03-18T00:17:53.003Z,0.73
2023-03-18T00:20:54.869Z,0.60
2023-03-18T00:23:59.195Z,0.80
2023-03-18T00:27:01.104Z,0.90
2023-03-18T00:30:05.808Z,0.70
2023-03-18T00:33:09.482Z,1.17
2023-03-18T00:36:14.073Z,0.53
2023-03-18T00:39:15.928Z,0.60
2023-03-18T00:42:18.060Z,0.60
2023-03-18T00:45:19.962Z,0.97
2023-03-18T00:48:23.615Z,0.60
2023-03-18T00:51:28.233Z,0.70
2023-03-18T00:54:30.862Z,0.80
2023-03-18T00:57:33.432Z,0.80
2023-03-18T01:00:37.402Z,0.60
2023-03-18T01:03:42.458Z,0.70
2023-03-18T01:06:45.079Z,0.60
2023-03-18T01:09:46.979Z,0.63
2023-03-18T01:12:48.913Z,0.70
2023-03-18T01:15:51.936Z,0.63
2023-03-18T01:18:54.636Z,0.67
2023-03-18T01:21:57.076Z,0.80
2023-03-18T01:24:59.032Z,0.60
2023-03-18T01:28:01.475Z,0.60
2023-03-18T01:31:04.932Z,0.80
2023-03-18T01:34:06.933Z,0.60
2023-03-18T01:37:09.013Z,0.60
2023-03-18T01:40:12.470Z,0.60
2023-03-18T01:43:26.744Z,0.80
2023-03-18T01:46:41.164Z,0.50
2023-03-18T01:49:47.044Z,0.60
2023-03-18T01:52:53.061Z,0.70
2023-03-18T01:55:57.815Z,0.83
2023-03-18T01:59:00.516Z,0.67
2023-03-18T02:02:09.547Z,0.47
2023-03-18T02:05:14.653Z,0.60
2023-03-18T02:08:17.889Z,0.77
2023-03-18T02:11:19.803Z,0.70
2023-03-18T02:14:24.996Z,0.63
2023-03-18T02:17:30.570Z,0.50
2023-03-18T02:20:41.062Z,0.70
2023-03-18T02:24:05.180Z,0.77
2023-03-18T02:27:21.969Z,0.60
2023-03-18T02:30:28.022Z,0.70
2023-03-18T02:33:34.992Z,0.40
2023-03-18T02:36:37.333Z,0.80
2023-03-18T02:39:39.242Z,0.43
2023-03-18T02:42:41.113Z,0.57
2023-03-18T02:45:59.283Z,0.90
2023-03-18T02:49:02.284Z,0.70
2023-03-18T02:52:04.721Z,0.80
2023-03-18T02:55:07.318Z,0.60
2023-03-18T02:58:09.755Z,0.63
2023-03-18T03:01:11.963Z,0.60
2023-03-18T03:04:15.042Z,0.50
2023-03-18T03:07:16.882Z,0.60
2023-03-18T03:10:18.933Z,0.90
2023-03-18T03:13:22.601Z,0.87
2023-03-18T03:16:24.506Z,0.90
2023-03-18T03:19:26.439Z,0.50
2023-03-18T03:22:28.553Z,0.77
2023-03-18T03:25:31.213Z,0.67
2023-03-18T03:28:33.782Z,0.50
2023-03-18T03:31:36.966Z,0.80
2023-03-18T03:34:38.951Z,0.87
2023-03-18T03:37:41.300Z,0.70
2023-03-18T03:40:43.833Z,0.60
2023-03-18T03:43:45.749Z,0.87
2023-03-18T03:46:49.747Z,0.57
2023-03-18T03:49:52.599Z,0.50
2023-03-18T03:52:54.544Z,0.77
2023-03-18T03:55:58.971Z,0.60
2023-03-18T03:59:01.449Z,0.60
2023-03-18T04:02:03.547Z,0.60
2023-03-18T04:05:06.757Z,0.53
2023-03-18T04:08:08.585Z,0.50
2023-03-18T04:11:11.005Z,0.60
2023-03-18T04:14:12.959Z,0.40
2023-03-18T04:17:15.045Z,0.50
2023-03-18T04:20:17.694Z,0.57
2023-03-18T04:23:19.711Z,0.57
2023-03-18T04:26:21.569Z,0.40
2023-03-18T04:29:24.435Z,0.43
2023-03-18T04:32:26.465Z,0.87
2023-03-18T04:35:28.621Z,0.83
2023-03-18T04:38:30.850Z,0.67
2023-03-18T04:41:32.800Z,0.70
2023-03-18T04:44:35.204Z,0.67
2023-03-18T04:47:38.445Z,0.63
2023-03-18T04:50:40.643Z,0.70
2023-03-18T04:53:42.656Z,0.70
2023-03-18T04:56:44.779Z,0.50
2023-03-18T04:59:47.119Z,0.70
2023-03-18T05:02:49.071Z,0.53
2023-03-18T05:05:51.984Z,1.10
2023-03-18T05:08:54.355Z,0.70
2023-03-18T05:11:56.277Z,0.83
2023-03-18T05:14:58.074Z,1.00
2023-03-18T05:18:00.649Z,0.80
2023-03-18T05:21:03.119Z,0.90
2023-03-18T05:24:05.220Z,0.93
2023-03-18T05:27:07.697Z,0.90
2023-03-18T05:30:11.355Z,0.77
2023-03-18T05:33:14.317Z,1.00
2023-03-18T05:36:16.190Z,0.80
2023-03-18T05:39:18.073Z,0.90
2023-03-18T05:42:19.994Z,0.90
2023-03-18T05:45:22.104Z,0.90
2023-03-18T05:48:24.192Z,1.00
2023-03-18T05:51:26.787Z,1.27
2023-03-18T05:54:29.301Z,1.00
2023-03-18T05:57:31.233Z,0.70
2023-03-18T06:00:33.467Z,0.80
2023-03-18T06:03:35.931Z,1.13
2023-03-18T06:06:40.864Z,0.93
2023-03-18T06:09:43.482Z,0.90
2023-03-18T06:12:45.386Z,1.10
2023-03-18T06:15:48.704Z,0.90
2023-03-18T06:18:51.697Z,1.07
2023-03-18T06:21:53.502Z,1.10
2023-03-18T06:24:56.013Z,1.00
2023-03-18T06:27:57.961Z,1.00
2023-03-18T06:30:59.987Z,1.07
2023-03-18T06:34:01.892Z,1.13
2023-03-18T06:37:04.432Z,0.73
2023-03-18T06:40:07.786Z,0.80
2023-03-18T06:43:09.907Z,0.80
2023-03-18T06:46:11.770Z,0.80
2023-03-18T06:49:15.573Z,0.90
2023-03-18T06:52:19.275Z,1.33
2023-03-18T06:55:21.200Z,0.70
2023-03-18T06:58:24.972Z,0.67
2023-03-18T07:01:27.476Z,0.70
2023-03-18T07:04:29.559Z,0.70
2023-03-18T07:07:31.922Z,1.20
2023-03-18T07:10:33.961Z,0.90
2023-03-18T07:13:36.917Z,0.77
2023-03-18T07:16:39.427Z,1.00
2023-03-18T07:19:42.439Z,1.23
2023-03-18T07:22:47.127Z,1.23
2023-03-18T07:25:49.183Z,1.10
2023-03-18T07:28:52.089Z,1.20
2023-03-18T07:31:54.348Z,0.93
2023-03-18T07:34:57.364Z,0.83
2023-03-18T07:37:59.289Z,1.30
2023-03-18T07:41:01.620Z,1.20
2023-03-18T07:44:04.588Z,1.17
2023-03-18T07:47:06.537Z,1.00
2023-03-18T07:50:09.529Z,1.00
2023-03-18T07:53:11.885Z,1.20
2023-03-18T07:56:15.137Z,0.70
2023-03-18T07:59:18.693Z,1.00
2023-03-18T08:02:22.346Z,0.93
2023-03-18T08:05:24.340Z,1.03
2023-03-18T08:08:26.950Z,1.00
2023-03-18T08:11:29.378Z,0.80
2023-03-18T08:14:32.393Z,1.03
2023-03-18T08:17:34.456Z,0.93
2023-03-18T08:20:36.482Z,1.10
2023-03-18T08:23:38.961Z,1.10
2023-03-18T08:26:41.253Z,0.93
2023-03-18T08:29:43.491Z,1.03
2023-03-18T08:32:45.630Z,1.47
2023-03-18T08:35:48.191Z,1.20
2023-03-18T08:39:00.221Z,0.80
2023-03-18T08:42:06.777Z,1.10
2023-03-18T08:45:09.911Z,0.90
2023-03-18T08:48:11.950Z,0.97
2023-03-18T08:51:15.268Z,1.17
2023-03-18T08:54:23.928Z,1.10
2023-03-18T08:57:28.184Z,1.23
2023-03-18T09:00:55.633Z,1.07
2023-03-18T09:04:01.350Z,1.10
2023-03-18T09:07:09.934Z,1.20
2023-03-18T09:10:14.998Z,1.50
2023-03-18T09:13:16.927Z,1.47
2023-03-18T09:16:19.129Z,1.00
2023-03-18T09:19:21.521Z,1.20
2023-03-18T09:22:24.912Z,1.10
2023-03-18T09:25:27.490Z,0.90
2023-03-18T09:28:30.056Z,1.00
2023-03-18T09:31:31.936Z,0.90
2023-03-18T09:34:34.073Z,0.97
2023-03-18T09:37:37.337Z,0.80
2023-03-18T09:41:03.499Z,1.40
2023-03-18T09:44:24.042Z,0.97
2023-03-18T09:48:03.976Z,0.83
2023-03-18T09:51:36.855Z,1.00
2023-03-18T10:04:05.310Z,0.90
2023-03-18T10:26:36.279Z,0.80
2023-03-18T10:30:12.046Z,1.30
2023-03-18T10:34:02.775Z,1.27
2023-03-18T10:37:41.727Z,1.00
2023-03-18T10:45:53.562Z,1.30
2023-03-18T10:49:00.496Z,1.33
2023-03-18T10:52:12.851Z,1.43
2023-03-18T11:00:26.164Z,1.63
2023-03-18T11:03:32.420Z,1.40
2023-03-18T11:11:35.898Z,1.53
2023-03-18T11:19:26.636Z,1.40
2023-03-18T11:22:29.219Z,1.77
2023-03-18T11:25:32.927Z,1.70
2023-03-18T11:28:35.190Z,1.60
2023-03-18T11:32:11.885Z,1.77
2023-03-18T11:36:12.667Z,2.10
2023-03-18T11:40:04.909Z,1.63
2023-03-18T11:47:59.775Z,1.57
2023-03-18T11:56:10.651Z,1.57
2023-03-18T12:04:49.435Z,1.20
2023-03-18T12:13:11.425Z,1.80
2023-03-18T12:17:21.361Z,1.67
2023-03-18T12:20:46.581Z,2.10
2023-03-18T12:24:15.645Z,2.30
2023-03-18T12:27:35.185Z,2.13
2023-03-18T12:35:45.614Z,2.60
2023-03-18T12:43:27.486Z,2.60
2023-03-18T12:51:44.121Z,2.50
2023-03-18T13:00:01.728Z,2.17
2023-03-18T13:08:23.249Z,2.40
2023-03-18T13:30:21.062Z,2.57
2023-03-18T13:34:01.426Z,2.97
2023-03-18T13:41:33.627Z,3.00
2023-03-18T13:45:31.998Z,2.73
2023-03-18T13:48:35.249Z,2.97
2023-03-18T13:51:37.645Z,3.50
2023-03-18T13:56:04.355Z,3.00
2023-03-18T13:59:30.153Z,3.30
2023-03-18T14:02:48.401Z,3.58
2023-03-18T14:10:45.069Z,3.30
2023-03-18T14:13:55.917Z,4.13
2023-03-18T14:16:58.965Z,3.92
2023-03-18T14:20:19.170Z,3.67
2023-03-18T14:23:34.915Z,3.78
2023-03-18T14:26:38.082Z,2.92
2023-03-18T14:29:47.660Z,3.90
2023-03-18T14:33:00.296Z,3.83
2023-03-18T14:36:07.434Z,3.72
2023-03-18T14:39:18.176Z,3.25
2023-03-18T14:42:23.511Z,2.92
2023-03-18T14:45:37.951Z,3.38
2023-03-18T14:48:39.965Z,3.10
2023-03-18T14:51:42.480Z,3.25
2023-03-18T14:54:46.212Z,3.50
2023-03-18T14:57:48.141Z,3.33
2023-03-18T15:00:56.885Z,3.88
2023-03-18T15:03:59.088Z,3.35
2023-03-18T15:07:04.395Z,3.35
2023-03-18T15:10:13.637Z,3.55
2023-03-18T15:13:20.743Z,3.40
2023-03-18T15:16:24.347Z,3.65
2023-03-18T15:19:28.251Z,3.40
2023-03-18T15:22:31.852Z,3.13
2023-03-18T15:25:34.420Z,2.83
2023-03-18T15:28:36.543Z,2.67
2023-03-18T15:31:44.098Z,2.47
2023-03-18T15:34:53.524Z,2.65
2023-03-18T15:38:16.482Z,2.30
2023-03-18T15:41:21.815Z,2.72
2023-03-18T15:44:32.287Z,2.35
2023-03-18T15:47:34.225Z,2.47
2023-03-18T15:50:37.822Z,2.50
2023-03-18T15:53:48.167Z,5.22
2023-03-18T15:57:38.646Z,2.15
2023-03-18T16:01:17.694Z,2.25
2023-03-18T16:04:20.907Z,2.63
2023-03-18T16:07:24.680Z,2.58
2023-03-18T16:11:32.378Z,2.13
2023-03-18T16:14:44.226Z,1.90
2023-03-18T16:17:56.684Z,2.03
2023-03-18T16:20:58.962Z,1.98
2023-03-18T16:24:01.748Z,2.40
2023-03-18T16:27:05.610Z,2.45
2023-03-18T16:30:22.700Z,3.03
2023-03-18T16:33:25.475Z,2.85
2023-03-18T16:36:32.846Z,2.67
2023-03-18T16:39:35.430Z,2.13
2023-03-18T16:42:37.489Z,1.77
2023-03-18T16:45:39.617Z,1.70
2023-03-18T16:48:41.959Z,1.70
2023-03-18T16:52:01.134Z,2.30
2023-03-18T16:55:03.871Z,2.00
2023-03-18T16:58:06.024Z,1.60
2023-03-18T17:01:08.085Z,2.83
2023-03-18T17:04:23.435Z,2.70
2023-03-18T17:07:25.480Z,2.50
2023-03-18T17:10:27.428Z,2.33
2023-03-18T17:13:31.845Z,2.27
2023-03-18T17:16:34.350Z,3.43
2023-03-18T17:19:36.536Z,5.73
2023-03-18T17:22:38.779Z,2.80
2023-03-18T17:25:49.400Z,4.80
2023-03-18T17:28:52.417Z,14.63
2023-03-18T17:31:55.231Z,5.73
2023-03-18T17:34:57.794Z,8.73
2023-03-18T17:38:00.152Z,3.30
2023-03-18T17:41:23.337Z,9.00
2023-03-18T17:44:30.273Z,15.83
2023-03-18T17:47:33.170Z,18.50
2023-03-18T17:50:35.484Z,21.93
2023-03-18T17:53:39.748Z,12.40
2023-03-18T17:56:42.289Z,6.20
2023-03-18T17:59:44.835Z,5.50
2023-03-18T18:02:47.001Z,7.77
2023-03-18T18:05:56.174Z,6.33
2023-03-18T18:09:00.765Z,5.30
2023-03-18T18:12:03.084Z,3.90
2023-03-18T18:15:06.889Z,3.70
2023-03-18T18:18:23.415Z,3.10
2023-03-18T18:21:26.356Z,2.87
2023-03-18T18:24:30.033Z,2.37
2023-03-18T18:27:31.994Z,2.33
2023-03-18T18:30:34.249Z,2.27
2023-03-18T18:33:38.204Z,2.07
2023-03-18T18:36:40.207Z,2.10
2023-03-18T18:39:42.979Z,2.00
2023-03-18T18:42:44.906Z,2.00
2023-03-18T18:45:47.552Z,2.20
2023-03-18T18:48:49.611Z,2.30
2023-03-18T18:51:56.524Z,2.60
2023-03-18T18:54:58.765Z,2.67
2023-03-18T18:58:00.650Z,2.30
2023-03-18T19:01:02.526Z,2.17
2023-03-18T19:04:05.588Z,2.17
2023-03-18T19:07:07.601Z,13.30
2023-03-18T19:10:17.625Z,3.67
2023-03-18T19:13:19.576Z,2.13
2023-03-18T19:16:33.349Z,2.27
2023-03-18T19:19:35.768Z,2.07
2023-03-18T19:22:38.442Z,2.73
2023-03-18T19:25:41.172Z,2.40
2023-03-18T19:28:57.053Z,2.80
2023-03-18T19:32:01.703Z,2.50
2023-03-18T19:35:03.875Z,2.70
2023-03-18T19:38:06.279Z,2.10
2023-03-18T19:41:08.904Z,1.87
2023-03-18T19:44:25.206Z,2.40
2023-03-18T19:47:28.934Z,2.13
2023-03-18T19:50:30.739Z,2.67
2023-03-18T19:53:36.338Z,2.70
2023-03-18T19:56:38.476Z,2.83
2023-03-18T19:59:41.723Z,2.50
2023-03-18T20:02:44.199Z,2.50
2023-03-18T20:05:47.489Z,2.70
2023-03-18T20:08:49.294Z,2.30
2023-03-18T20:11:54.258Z,2.70
2023-03-18T20:14:56.278Z,2.30
2023-03-18T20:18:01.174Z,2.00
2023-03-18T20:21:03.474Z,1.90
2023-03-18T20:24:08.744Z,2.27
2023-03-18T20:27:12.335Z,2.90
2023-03-18T20:30:23.511Z,3.67
2023-03-18T20:33:25.369Z,3.10
2023-03-18T20:36:27.343Z,2.67
2023-03-18T20:39:29.142Z,2.93
2023-03-18T20:42:31.283Z,2.67
2023-03-18T20:45:36.340Z,2.40
2023-03-18T20:48:38.641Z,2.07
2023-03-18T20:51:44.361Z,2.50
2023-03-18T20:54:46.265Z,2.53
2023-03-18T20:57:49.274Z,2.63
2023-03-18T21:00:52.677Z,2.40
2023-03-18T21:03:54.565Z,2.70
2023-03-18T21:06:57.372Z,2.37
2023-03-18T21:10:00.335Z,2.50
2023-03-18T21:13:02.227Z,2.70
2023-03-18T21:16:06.360Z,2.60
2023-03-18T21:19:08.637Z,3.10
2023-03-18T21:22:12.444Z,2.60
2023-03-18T21:25:27.140Z,2.43
2023-03-18T21:28:30.263Z,2.60
2023-03-18T21:31:32.538Z,2.33
2023-03-18T21:34:34.401Z,2.20
2023-03-18T21:37:36.709Z,3.03
2023-03-18T21:40:39.255Z,2.53
2023-03-18T21:43:41.901Z,2.40
2023-03-18T21:46:44.531Z,2.47
2023-03-18T21:49:47.300Z,2.30
2023-03-18T21:52:49.617Z,2.50
2023-03-18T21:55:52.380Z,2.43
2023-03-18T21:58:55.864Z,2.10
2023-03-18T22:01:57.933Z,3.40
2023-03-18T22:05:05.759Z,2.97
2023-03-18T22:08:09.195Z,2.80
2023-03-18T22:11:22.316Z,3.00
2023-03-18T22:14:24.224Z,2.63
2023-03-18T22:17:34.013Z,2.40
2023-03-18T22:20:37.772Z,3.27
2023-03-18T22:23:42.043Z,2.60
2023-03-18T22:26:44.448Z,2.60
2023-03-18T22:29:47.400Z,2.33
2023-03-18T22:32:49.432Z,2.07
2023-03-18T22:35:51.331Z,2.33
2023-03-18T22:38:53.170Z,1.83
2023-03-18T22:41:54.974Z,2.10
2023-03-18T22:44:56.933Z,2.10
2023-03-18T22:48:02.912Z,2.20
2023-03-18T22:51:06.888Z,1.83
2023-03-18T22:54:15.669Z,1.70
2023-03-18T22:57:19.928Z,1.83
2023-03-18T23:00:25.970Z,2.07
2023-03-18T23:03:30.225Z,1.73
2023-03-18T23:06:32.021Z,1.90
2023-03-18T23:09:41.582Z,2.00
2023-03-18T23:12:47.347Z,2.20
2023-03-18T23:15:49.733Z,2.20
2023-03-18T23:18:52.250Z,1.80
2023-03-18T23:21:54.189Z,1.97
2023-03-18T23:24:56.728Z,1.80
2023-03-18T23:27:58.678Z,1.80
2023-03-18T23:31:00.544Z,1.80
2023-03-18T23:34:02.842Z,1.80
2023-03-18T23:37:04.809Z,2.83
2023-03-18T23:40:07.774Z,1.77
2023-03-18T23:43:10.137Z,2.17
2023-03-18T23:46:12.700Z,1.70
2023-03-18T23:49:15.214Z,1.67
2023-03-18T23:52:17.260Z,1.80
2023-03-18T23:55:33.613Z,2.47
2023-03-18T23:58:36.395Z,1.80
